Time;durP1;ratioP1;P1;durP2;ratioP2;P2;SDS_P1;SDS_P2;PMS_P1;PMS_P2;Temp;Humidity;BMP_temperature;BMP_pressure;BME280_temperature;BME280_humidity;BME280_pressure;Samples;Min_cycle;Max_cycle;Signal;HPM_P1;HPM_P2
2022/09/03 00:01:51;;;;;;;13.03;5.77;;;;;;;17.73;55.36;100773.11;124755;1099;104178;-76
2022/09/03 00:04:30;;;;;;;21.00;6.43;;;;;;;17.76;55.42;100773.14;124759;1099;104261;-77
2022/09/03 00:07:05;;;;;;;14.23;5.70;;;;;;;17.77;55.45;100774.93;124782;1099;104189;-77
2022/09/03 00:09:43;;;;;;;12.87;5.83;;;;;;;17.71;55.28;100773.09;124753;1099;104262;-77
2022/09/03 00:12:19;;;;;;;17.27;5.90;;;;;;;17.69;56.06;100784.58;124853;1099;103304;-77
2022/09/03 00:14:55;;;;;;;17.53;6.70;;;;;;;17.63;56.07;100787.16;124807;1098;104229;-76
2022/09/03 00:17:32;;;;;;;16.97;5.70;;;;;;;17.57;56.10;100785.32;124843;1099;104338;-77
2022/09/03 00:20:11;;;;;;;12.83;5.97;;;;;;;17.51;56.49;100794.09;124700;1099;104491;-77
2022/09/03 00:22:48;;;;;;;14.40;5.90;;;;;;;17.43;56.32;100790.46;124717;1098;104213;-76
2022/09/03 00:25:24;;;;;;;12.83;5.97;;;;;;;17.36;56.87;100794.81;124794;1099;102730;-76
2022/09/03 00:28:00;;;;;;;16.43;5.87;;;;;;;17.29;56.78;100800.02;124790;1099;102900;-76
2022/09/03 00:30:32;;;;;;;15.37;6.53;;;;;;;17.20;57.09;100804.34;124781;1099;104201;-76
2022/09/03 00:33:10;;;;;;;15.83;6.30;;;;;;;17.14;56.94;100814.86;124772;1099;104152;-76
2022/09/03 00:35:46;;;;;;;15.00;6.20;;;;;;;17.07;57.90;100815.63;124799;1099;104220;-77
2022/09/03 00:38:18;;;;;;;14.17;5.70;;;;;;;17.04;57.75;100818.23;124751;1099;102822;-76
2022/09/03 00:41:02;;;;;;;15.87;6.20;;;;;;;16.99;57.74;100822.59;124895;1099;104348;-76
2022/09/03 00:43:48;;;;;;;14.80;6.10;;;;;;;16.94;58.76;100811.92;124870;1099;101923;-76
2022/09/03 00:46:26;;;;;;;16.50;5.73;;;;;;;16.86;58.45;100821.49;124672;1099;106973;-76
2022/09/03 00:49:23;;;;;;;14.40;5.53;;;;;;;16.79;58.88;100820.48;124828;1098;102554;-75
2022/09/03 00:52:10;;;;;;;14.15;5.75;;;;;;;16.78;58.82;100821.38;124725;1099;104778;-75
2022/09/03 00:54:50;;;;;;;13.03;5.70;;;;;;;16.77;59.35;100816.93;124778;1099;104265;-75
2022/09/03 00:57:30;;;;;;;13.27;5.90;;;;;;;16.74;59.99;100816.88;124781;1099;102814;-75
2022/09/03 01:00:07;;;;;;;15.03;5.50;;;;;;;16.70;59.73;100815.04;124845;1098;104220;-75
2022/09/03 01:02:50;;;;;;;12.37;5.77;;;;;;;16.66;60.45;100806.16;124819;1099;102765;-75
2022/09/03 01:05:34;;;;;;;13.37;5.80;;;;;;;16.62;60.61;100814.04;124751;1099;104707;-75
2022/09/03 01:08:31;;;;;;;13.93;5.87;;;;;;;16.61;60.12;100814.89;124835;1099;104331;-75
2022/09/03 01:11:12;;;;;;;13.37;5.20;;;;;;;16.57;60.48;100813.09;124800;1099;102111;-75
2022/09/03 01:13:50;;;;;;;11.53;5.37;;;;;;;16.53;60.61;100812.12;124750;1099;104054;-75
2022/09/03 01:16:31;;;;;;;12.33;5.77;;;;;;;16.51;61.21;100814.74;124848;1097;104223;-75
2022/09/03 01:19:12;;;;;;;14.37;5.10;;;;;;;16.52;60.89;100807.71;124697;1099;104259;-75
2022/09/03 01:22:07;;;;;;;10.47;4.60;;;;;;;16.51;60.90;100806.80;124826;1099;104159;-75
2022/09/03 01:24:58;;;;;;;11.60;4.80;;;;;;;16.46;61.38;100802.31;124695;1099;102868;-76
2022/09/03 01:27:45;;;;;;;12.60;5.07;;;;;;;16.42;61.02;100809.29;124725;1099;106915;-75
2022/09/03 01:30:19;;;;;;;12.47;4.73;;;;;;;16.39;61.22;100806.59;124685;1098;104169;-74
2022/09/03 01:32:55;;;;;;;11.55;4.67;;;;;;;16.36;61.43;100809.19;124752;1099;102124;-74
2022/09/03 01:35:34;;;;;;;12.37;4.97;;;;;;;16.37;61.67;100800.39;124814;1099;104198;-75
2022/09/03 01:38:20;;;;;;;10.70;4.87;;;;;;;16.38;61.57;100795.97;124781;1099;102858;-75
2022/09/03 01:42:12;;;;;;;12.83;5.30;;;;;;;16.36;62.12;100785.36;124793;1099;104402;-75
2022/09/03 01:44:03;;;;;;;14.13;4.80;;;;;;;16.29;62.47;100775.55;124770;1099;102393;-75
2022/09/03 01:46:39;;;;;;;10.87;4.40;;;;;;;16.25;62.08;100784.29;124771;1099;104201;-75
2022/09/03 01:49:21;;;;;;;11.63;4.60;;;;;;;16.27;62.69;100774.64;124751;1099;104149;-75
2022/09/03 01:52:02;;;;;;;12.43;4.47;;;;;;;16.24;62.09;100777.23;124803;1099;104261;-75
2022/09/03 01:54:49;;;;;;;10.90;4.60;;;;;;;16.21;61.87;100774.53;124778;1099;104322;-75
2022/09/03 01:57:46;;;;;;;11.20;4.30;;;;;;;16.19;62.99;100774.52;124780;1099;104226;-75
2022/09/03 02:00:19;;;;;;;7.60;4.10;;;;;;;16.18;61.95;100776.24;124786;1099;104169;-75
2022/09/03 02:02:52;;;;;;;8.60;4.10;;;;;;;16.19;62.13;100771.86;124779;1099;104182;-75
2022/09/03 02:05:26;;;;;;;8.98;4.55;;;;;;;16.21;62.73;100777.19;124806;1099;102969;-76
2022/09/03 02:08:00;;;;;;;11.50;4.60;;;;;;;16.22;63.14;100779.86;124800;1099;104208;-76
2022/09/03 02:10:38;;;;;;;10.97;4.60;;;;;;;16.25;63.16;100781.64;124783;1099;104153;-75
2022/09/03 02:13:13;;;;;;;10.17;4.83;;;;;;;16.27;63.63;100779.94;124689;1099;104186;-75
2022/09/03 02:15:48;;;;;;;8.67;4.23;;;;;;;16.25;63.66;100776.34;124697;1099;104188;-75
2022/09/03 02:18:23;;;;;;;11.77;5.27;;;;;;;16.23;63.33;100776.32;124856;1099;119965;-75
2022/09/03 02:20:56;;;;;;;13.30;4.80;;;;;;;16.24;63.04;100777.23;125383;1099;104288;-75
2022/09/03 02:23:27;;;;;;;10.13;4.50;;;;;;;16.23;63.61;100778.09;124801;1099;104235;-75
2022/09/03 02:26:00;;;;;;;9.47;4.50;;;;;;;16.23;63.50;100786.03;124805;1099;104207;-75
2022/09/03 02:28:33;;;;;;;8.50;4.27;;;;;;;16.15;63.19;100786.78;124795;1099;104160;-75
2022/09/03 02:31:05;;;;;;;10.50;3.92;;;;;;;16.10;63.74;100787.59;124835;1099;104258;-75
2022/09/03 02:33:39;;;;;;;9.07;3.37;;;;;;;16.03;63.04;100788.33;124809;1099;104271;-75
2022/09/03 02:36:15;;;;;;;8.57;3.67;;;;;;;15.97;63.55;100787.36;124727;1098;104258;-75
2022/09/03 02:38:47;;;;;;;6.67;3.70;;;;;;;15.91;63.50;100781.05;124788;1099;112885;-75
2022/09/03 02:41:18;;;;;;;7.77;3.80;;;;;;;15.89;63.93;100793.36;124816;1097;104175;-75
2022/09/03 02:43:55;;;;;;;7.93;3.60;;;;;;;15.84;63.54;100795.05;124772;1099;104220;-75
2022/09/03 02:46:30;;;;;;;6.33;3.57;;;;;;;15.77;63.70;100805.51;124735;1099;104223;-75
2022/09/03 02:49:01;;;;;;;8.97;3.73;;;;;;;15.73;63.30;100806.27;124737;1099;104284;-75
2022/09/03 02:51:36;;;;;;;6.60;3.20;;;;;;;15.73;63.97;100808.03;124759;1099;104191;-75
2022/09/03 02:54:07;;;;;;;9.57;3.77;;;;;;;15.66;64.00;100806.11;124764;1099;104525;-75
2022/09/03 02:56:38;;;;;;;6.53;3.57;;;;;;;15.61;63.75;100813.95;124784;1099;102755;-76
2022/09/03 02:59:10;;;;;;;10.73;3.70;;;;;;;15.54;62.99;100807.66;124781;1099;102858;-75
2022/09/03 03:01:42;;;;;;;6.57;3.40;;;;;;;15.51;63.49;100807.59;124804;1099;102240;-75
2022/09/03 03:04:13;;;;;;;7.07;3.60;;;;;;;15.50;63.60;100799.63;124828;1099;104334;-75
2022/09/03 03:06:44;;;;;;;8.47;3.50;;;;;;;15.50;64.61;100800.52;124764;1099;104214;-75
2022/09/03 03:09:15;;;;;;;11.03;3.60;;;;;;;15.51;64.48;100812.00;124747;1099;104306;-75
2022/09/03 03:11:50;;;;;;;9.40;4.03;;;;;;;15.48;64.49;100802.24;124796;1099;102929;-74
2022/09/03 03:14:21;;;;;;;7.77;3.20;;;;;;;15.42;64.53;100803.00;124763;1099;104185;-75
2022/09/03 03:16:52;;;;;;;8.70;3.33;;;;;;;15.39;63.66;100797.64;124817;1099;102778;-74
2022/09/03 03:19:24;;;;;;;5.40;3.07;;;;;;;15.30;63.57;100802.73;124847;1098;102695;-74
2022/09/03 03:21:55;;;;;;;6.60;3.20;;;;;;;15.24;63.92;100803.52;124846;1099;104207;-74
2022/09/03 03:24:26;;;;;;;7.17;3.17;;;;;;;15.21;64.08;100799.93;124747;1098;104201;-75
2022/09/03 03:26:59;;;;;;;7.80;2.93;;;;;;;15.14;64.73;100801.53;124751;1099;104176;-75
2022/09/03 03:29:30;;;;;;;6.03;3.03;;;;;;;15.08;63.96;100804.95;124770;1099;104226;-75
2022/09/03 03:32:07;;;;;;;10.13;3.00;;;;;;;15.05;63.88;100798.68;124780;1099;104297;-75
2022/09/03 03:34:41;;;;;;;4.07;2.60;;;;;;;15.00;64.82;100800.34;124736;1099;104315;-76
2022/09/03 03:37:12;;;;;;;4.23;3.10;;;;;;;14.98;64.35;100796.78;124766;1099;102676;-76
2022/09/03 03:39:43;;;;;;;6.27;2.97;;;;;;;14.96;65.03;100788.81;124790;1098;102197;-76
2022/09/03 03:42:14;;;;;;;3.87;2.70;;;;;;;14.95;65.04;100788.78;124786;1099;104239;-75
2022/09/03 03:44:45;;;;;;;6.67;3.30;;;;;;;14.94;64.79;100787.87;124810;1097;104312;-76
2022/09/03 03:47:17;;;;;;;5.57;2.83;;;;;;;14.91;64.50;100791.36;124845;1099;104500;-76
2022/09/03 03:49:48;;;;;;;6.40;2.90;;;;;;;14.88;64.63;100787.73;124684;1099;104341;-76
2022/09/03 03:52:21;;;;;;;8.47;3.00;;;;;;;14.85;64.26;100788.58;125583;1099;104268;-77
2022/09/03 03:54:53;;;;;;;8.30;3.10;;;;;;;14.86;65.03;100798.27;124827;1099;104201;-76
2022/09/03 03:57:24;;;;;;;4.40;2.77;;;;;;;14.85;65.36;100796.50;124840;1099;104201;-77
2022/09/03 03:59:56;;;;;;;5.40;2.83;;;;;;;14.85;64.90;100803.51;124830;1099;104365;-77
2022/09/03 04:02:27;;;;;;;5.50;2.90;;;;;;;14.85;65.10;100808.79;124770;1099;104235;-77
2022/09/03 04:04:59;;;;;;;3.85;2.55;;;;;;;14.85;64.46;100806.15;124823;1098;104232;-77
2022/09/03 04:07:30;;;;;;;6.67;2.60;;;;;;;14.85;65.82;100814.99;124843;1099;104235;-76
2022/09/03 04:10:01;;;;;;;3.97;2.77;;;;;;;14.85;65.61;100814.08;124794;1099;102165;-77
2022/09/03 04:12:32;;;;;;;5.90;2.90;;;;;;;14.86;65.28;100816.75;124745;1099;104232;-77
2022/09/03 04:15:05;;;;;;;4.63;2.37;;;;;;;14.88;65.77;100817.70;124778;1099;104233;-77
2022/09/03 04:17:36;;;;;;;5.70;2.65;;;;;;;14.88;65.70;100815.06;124819;1099;104178;-77
2022/09/03 04:20:08;;;;;;;4.67;2.70;;;;;;;14.92;65.99;100819.54;124746;1099;103191;-77
2022/09/03 04:22:39;;;;;;;5.73;2.63;;;;;;;14.97;66.10;100814.36;124837;1099;104156;-77
2022/09/03 04:25:11;;;;;;;6.10;2.90;;;;;;;14.99;65.09;100819.68;124861;1099;104217;-77
2022/09/03 04:27:43;;;;;;;8.23;2.60;;;;;;;15.01;65.85;100818.88;124791;1099;102155;-78
2022/09/03 04:30:15;;;;;;;4.47;2.70;;;;;;;15.01;65.36;100821.52;124706;1099;102806;-77
2022/09/03 04:32:55;;;;;;;5.77;2.50;;;;;;;15.03;65.40;100818.91;124846;1099;104188;-77
2022/09/03 04:35:28;;;;;;;4.50;2.87;;;;;;;15.04;66.26;100826.87;124822;1098;102816;-77
2022/09/03 04:38:00;;;;;;;3.50;2.30;;;;;;;15.03;65.97;100825.07;124749;1099;102740;-77
2022/09/03 04:40:31;;;;;;;6.53;2.63;;;;;;;15.05;65.67;100825.11;124760;1099;104172;-77
2022/09/03 04:43:03;;;;;;;7.73;3.03;;;;;;;15.05;66.05;100833.95;124786;1097;104153;-77
2022/09/03 04:45:34;;;;;;;6.00;2.63;;;;;;;15.04;66.29;100832.16;124771;1099;104813;-77
2022/09/03 04:48:09;;;;;;;3.57;2.60;;;;;;;15.06;65.71;100834.83;124822;1099;102162;-77
2022/09/03 04:50:40;;;;;;;8.57;2.83;;;;;;;15.07;65.36;100832.22;124748;1099;103038;-77
2022/09/03 04:53:11;;;;;;;5.37;2.70;;;;;;;15.06;65.29;100830.42;124770;1099;104492;-77
2022/09/03 04:55:45;;;;;;;5.05;2.47;;;;;;;15.08;65.37;100826.09;124805;1099;104593;-77
2022/09/03 04:58:16;;;;;;;5.93;2.67;;;;;;;15.09;66.34;100841.06;124731;1099;104257;-77
2022/09/03 05:00:48;;;;;;;4.83;2.50;;;;;;;15.08;66.23;100839.30;124757;1098;104246;-78
2022/09/03 05:03:20;;;;;;;3.20;2.27;;;;;;;15.09;65.29;100838.42;124808;1099;104282;-77
2022/09/03 05:05:56;;;;;;;5.00;2.40;;;;;;;15.11;66.10;100843.74;124802;1099;104153;-77
2022/09/03 05:08:27;;;;;;;5.50;2.70;;;;;;;15.13;66.17;100842.05;124820;1099;102883;-77
2022/09/03 05:11:01;;;;;;;4.30;2.50;;;;;;;15.14;65.33;100848.22;124770;1099;104156;-77
2022/09/03 05:13:36;;;;;;;5.77;2.57;;;;;;;15.15;65.13;100845.61;124883;1099;104184;-77
2022/09/03 05:16:09;;;;;;;5.37;2.70;;;;;;;15.16;65.15;100855.34;124791;1098;104169;-77
2022/09/03 05:18:41;;;;;;;6.73;2.70;;;;;;;15.18;65.42;100850.09;124769;1099;104258;-77
2022/09/03 05:21:14;;;;;;;4.53;2.70;;;;;;;15.21;65.57;100848.39;124762;1099;102705;-78
2022/09/03 05:23:46;;;;;;;3.90;2.87;;;;;;;15.21;65.20;100842.22;124792;1099;104211;-77
2022/09/03 05:26:20;;;;;;;7.30;2.80;;;;;;;15.26;66.09;100848.50;124837;1099;104175;-77
2022/09/03 05:28:57;;;;;;;6.03;2.80;;;;;;;15.30;65.85;100852.97;124819;1098;104156;-77
2022/09/03 05:31:31;;;;;;;4.57;2.67;;;;;;;15.31;66.29;100852.12;124745;1099;104245;-77
2022/09/03 05:34:04;;;;;;;7.17;2.93;;;;;;;15.28;65.25;100846.77;124872;1099;104302;-77
2022/09/03 05:36:38;;;;;;;8.90;2.87;;;;;;;15.26;65.70;100849.38;124859;1098;104268;-77
2022/09/03 05:39:11;;;;;;;3.97;2.90;;;;;;;15.22;65.78;100849.27;124774;1099;104242;-77
2022/09/03 05:41:43;;;;;;;4.87;2.60;;;;;;;15.16;65.94;100849.14;124782;1098;104249;-77
2022/09/03 05:44:14;;;;;;;6.73;2.80;;;;;;;15.12;66.50;100849.95;124754;1097;103755;-77
2022/09/03 05:46:45;;;;;;;4.67;2.87;;;;;;;15.09;65.66;100851.64;124739;1099;104159;-77
2022/09/03 05:49:17;;;;;;;6.50;3.10;;;;;;;15.07;66.07;100839.27;124807;1099;104267;-77
2022/09/03 05:51:48;;;;;;;4.93;2.67;;;;;;;15.08;66.61;100848.96;124755;1099;104217;-77
2022/09/03 05:54:19;;;;;;;8.13;3.50;;;;;;;15.08;66.41;100841.03;124747;1098;104156;-76
2022/09/03 05:56:50;;;;;;;5.20;2.73;;;;;;;15.09;65.93;100841.06;124793;1099;103825;-76
2022/09/03 05:59:22;;;;;;;8.73;3.20;;;;;;;15.13;66.18;100844.70;124761;1099;102854;-77
2022/09/03 06:01:53;;;;;;;8.23;3.03;;;;;;;15.15;66.50;100835.04;124813;1099;102355;-77
2022/09/03 06:04:26;;;;;;;7.13;3.20;;;;;;;15.19;65.88;100846.56;124773;1098;104191;-77
2022/09/03 06:06:57;;;;;;;5.10;2.80;;;;;;;15.24;66.54;100844.94;124754;1099;102831;-77
2022/09/03 06:09:28;;;;;;;5.17;3.00;;;;;;;15.34;66.21;100841.62;124734;1098;104089;-77
2022/09/03 06:11:59;;;;;;;5.53;3.00;;;;;;;15.40;66.44;100839.11;124666;1099;102939;-77
2022/09/03 06:14:31;;;;;;;4.47;3.00;;;;;;;15.45;66.49;100839.20;124782;1099;104189;-77
2022/09/03 06:17:05;;;;;;;6.23;3.03;;;;;;;15.48;65.83;100839.27;124813;1098;104166;-77
2022/09/03 06:19:36;;;;;;;9.27;3.23;;;;;;;15.51;66.21;100838.45;124822;1099;104264;-77
2022/09/03 06:22:07;;;;;;;8.87;2.80;;;;;;;15.54;65.68;100835.88;124767;1099;104304;-76
2022/09/03 06:24:38;;;;;;;5.57;2.87;;;;;;;15.56;66.59;100835.02;124836;1099;102187;-77
2022/09/03 06:27:09;;;;;;;5.13;3.00;;;;;;;15.58;66.09;100838.61;124826;1099;104268;-77
2022/09/03 06:29:40;;;;;;;7.47;3.13;;;;;;;15.60;66.53;100838.64;124804;1099;104201;-77
2022/09/03 06:32:11;;;;;;;7.03;2.97;;;;;;;15.61;65.87;100840.41;124747;1098;104284;-77
2022/09/03 06:34:42;;;;;;;3.83;2.77;;;;;;;15.58;65.92;100840.34;124696;1098;104657;-77
2022/09/03 06:37:13;;;;;;;4.93;3.00;;;;;;;15.57;65.74;100841.22;124815;1099;104210;-77
2022/09/03 06:39:45;;;;;;;6.90;2.90;;;;;;;15.53;64.50;100836.72;124719;1099;104333;-77
2022/09/03 06:42:17;;;;;;;5.67;3.10;;;;;;;15.50;64.56;100834.02;124777;1099;104639;-77
2022/09/03 06:44:48;;;;;;;4.77;3.07;;;;;;;15.52;64.79;100837.57;124854;1099;102781;-76
2022/09/03 06:47:19;;;;;;;7.17;3.20;;;;;;;15.55;65.11;100841.19;124772;1099;104232;-77
2022/09/03 06:49:51;;;;;;;6.17;3.20;;;;;;;15.55;64.92;100834.98;124790;1099;104160;-77
2022/09/03 06:52:22;;;;;;;8.10;3.33;;;;;;;15.58;65.26;100842.98;124807;1099;104159;-77
2022/09/03 06:54:53;;;;;;;8.50;3.23;;;;;;;15.58;65.01;100840.34;124787;1099;104294;-77
2022/09/03 06:57:25;;;;;;;10.37;3.20;;;;;;;15.60;65.79;100838.64;124765;1099;103032;-77
2022/09/03 06:59:57;;;;;;;7.13;3.23;;;;;;;15.61;65.61;100838.67;124825;1099;103930;-77
2022/09/03 07:02:28;;;;;;;6.70;3.63;;;;;;;15.62;64.67;100837.80;124732;1099;104242;-77
2022/09/03 07:05:00;;;;;;;8.07;3.47;;;;;;;15.63;64.95;100844.00;124808;1099;102239;-77
2022/09/03 07:07:32;;;;;;;6.67;3.30;;;;;;;15.66;65.61;100845.80;124809;1098;104173;-77
2022/09/03 07:10:03;;;;;;;8.80;3.13;;;;;;;15.71;65.35;100841.52;124733;1099;102993;-77
2022/09/03 07:12:36;;;;;;;8.35;3.40;;;;;;;15.76;65.71;100835.42;124657;1099;104284;-77
2022/09/03 07:15:09;;;;;;;10.83;3.83;;;;;;;15.76;65.18;100842.48;124767;1099;104241;-77
2022/09/03 07:17:42;;;;;;;8.75;3.17;;;;;;;15.73;65.72;100831.84;124849;1099;104277;-77
2022/09/03 07:20:13;;;;;;;9.13;2.80;;;;;;;15.69;65.35;100836.19;124814;1099;104175;-77
2022/09/03 07:22:45;;;;;;;8.10;3.60;;;;;;;15.66;65.02;100830.84;124750;1099;104249;-77
2022/09/03 07:25:16;;;;;;;6.60;3.27;;;;;;;15.67;65.12;100834.36;124842;1099;102801;-77
2022/09/03 07:27:49;;;;;;;7.03;3.57;;;;;;;15.68;65.31;100836.16;124807;1099;104173;-77
2022/09/03 07:30:21;;;;;;;7.30;3.52;;;;;;;15.68;65.15;100833.52;124807;1099;104268;-77
2022/09/03 07:32:52;;;;;;;5.73;3.40;;;;;;;15.69;65.21;100835.27;124827;1097;104268;-77
2022/09/03 07:35:24;;;;;;;6.70;3.37;;;;;;;15.73;65.76;100839.78;124747;1099;102836;-77
2022/09/03 07:37:55;;;;;;;9.90;4.30;;;;;;;15.74;65.54;100845.09;124759;1099;104652;-77
2022/09/03 07:40:28;;;;;;;7.00;3.40;;;;;;;15.74;66.01;100842.45;124764;1099;103213;-77
2022/09/03 07:43:02;;;;;;;6.27;3.30;;;;;;;15.77;65.55;100844.31;124759;1099;102940;-77
2022/09/03 07:45:33;;;;;;;6.57;3.37;;;;;;;15.78;65.55;100840.78;124762;1099;104249;-77
2022/09/03 07:48:05;;;;;;;6.30;3.30;;;;;;;15.74;65.73;100841.57;124793;1099;104237;-77
2022/09/03 07:50:39;;;;;;;6.93;3.47;;;;;;;15.82;65.94;100847.94;124778;1099;104162;-77
2022/09/03 07:53:12;;;;;;;6.10;3.27;;;;;;;15.80;65.57;100847.91;124812;1099;104185;-76
2022/09/03 07:55:43;;;;;;;9.88;3.85;;;;;;;15.77;66.14;100853.13;124826;1098;104185;-77
2022/09/03 07:58:15;;;;;;;9.93;3.63;;;;;;;15.78;65.67;100854.02;124783;1097;104188;-77
2022/09/03 08:00:47;;;;;;;6.73;3.60;;;;;;;15.76;66.11;100845.12;124831;1099;104271;-77
2022/09/03 08:03:18;;;;;;;7.20;3.60;;;;;;;15.70;66.41;100851.18;124740;1099;104060;-77
2022/09/03 08:05:49;;;;;;;8.17;4.00;;;;;;;15.66;67.49;100853.73;124806;1099;104166;-77
2022/09/03 08:08:20;;;;;;;7.20;3.70;;;;;;;15.54;67.89;100849.98;124780;1098;104172;-77
2022/09/03 08:10:52;;;;;;;11.47;4.57;;;;;;;15.49;66.68;100851.64;124856;1099;101905;-77
2022/09/03 08:13:27;;;;;;;8.07;3.40;;;;;;;15.44;66.83;100859.48;124830;1098;104198;-77
2022/09/03 08:16:00;;;;;;;7.57;3.63;;;;;;;15.42;67.04;100863.81;124795;1098;104153;-77
2022/09/03 08:18:36;;;;;;;6.72;3.83;;;;;;;15.39;67.84;100861.11;124745;1100;104312;-77
2022/09/03 08:21:11;;;;;;;6.70;3.63;;;;;;;15.33;67.89;100874.19;124801;1099;102890;-77
2022/09/03 08:23:43;;;;;;;11.60;4.53;;;;;;;15.28;67.60;100867.92;124803;1099;102801;-77
2022/09/03 08:26:15;;;;;;;9.20;3.80;;;;;;;15.27;67.33;100866.16;124806;1099;102775;-76
2022/09/03 08:28:47;;;;;;;10.77;4.03;;;;;;;15.27;68.45;100871.44;124712;1099;104399;-76
2022/09/03 08:31:20;;;;;;;7.90;3.90;;;;;;;15.28;67.55;100870.56;124760;1099;104242;-76
2022/09/03 08:33:54;;;;;;;8.18;4.17;;;;;;;15.26;67.36;100867.00;124754;1099;104267;-76
2022/09/03 08:36:28;;;;;;;9.98;4.78;;;;;;;15.23;67.52;100869.58;124780;1099;102961;-76
2022/09/03 08:39:03;;;;;;;8.30;4.10;;;;;;;15.15;68.39;100860.59;124791;1099;104220;-76
2022/09/03 08:41:49;;;;;;;9.60;4.47;;;;;;;15.25;68.38;100873.14;124672;1099;104044;-76
2022/09/03 08:44:28;;;;;;;7.90;3.97;;;;;;;15.25;68.93;100867.84;124832;1099;103334;-76
2022/09/03 08:47:07;;;;;;;12.47;4.47;;;;;;;15.28;68.99;100873.20;124717;1099;101924;-76
2022/09/03 08:49:48;;;;;;;9.83;4.20;;;;;;;15.30;68.55;100871.48;124835;1099;102787;-76
2022/09/03 08:52:29;;;;;;;8.57;4.13;;;;;;;15.31;69.45;100867.98;124795;1098;104284;-77
2022/09/03 08:55:16;;;;;;;8.97;4.13;;;;;;;15.32;69.02;100874.16;124716;1099;104198;-76
2022/09/03 08:57:51;;;;;;;7.50;4.10;;;;;;;15.36;69.22;100871.61;124828;1099;104274;-77
2022/09/03 09:00:22;;;;;;;13.80;4.50;;;;;;;15.41;68.35;100880.56;124786;1099;102149;-76
2022/09/03 09:03:07;;;;;;;9.93;4.37;;;;;;;15.42;69.59;100869.11;124741;1099;101844;-76
2022/09/03 09:05:49;;;;;;;9.07;4.40;;;;;;;15.58;68.67;100873.00;124741;1099;102297;-76
2022/09/03 09:08:30;;;;;;;9.13;4.27;;;;;;;15.67;69.87;100872.28;124740;1099;104201;-76
2022/09/03 09:11:08;;;;;;;12.10;4.70;;;;;;;15.76;69.46;100874.23;124768;1099;104181;-76
2022/09/03 09:13:49;;;;;;;8.97;4.10;;;;;;;15.79;69.39;100866.39;124754;1099;104645;-76
2022/09/03 09:16:29;;;;;;;9.80;4.10;;;;;;;15.77;69.65;100863.72;124779;1098;104185;-76
2022/09/03 09:19:11;;;;;;;9.20;4.20;;;;;;;15.79;69.70;100859.34;124777;1098;104655;-76
2022/09/03 09:21:47;;;;;;;9.67;4.40;;;;;;;15.78;69.26;100857.57;124724;1099;104326;-76
2022/09/03 09:24:22;;;;;;;9.43;4.63;;;;;;;15.79;69.70;100856.69;124753;1099;104181;-76
2022/09/03 09:26:58;;;;;;;10.43;4.67;;;;;;;15.71;69.54;100847.69;124705;1099;111405;-76
2022/09/03 09:29:36;;;;;;;9.00;4.40;;;;;;;15.71;69.60;100846.80;124854;1099;104195;-76
2022/09/03 09:32:10;;;;;;;8.63;4.00;;;;;;;15.74;70.10;100844.22;124750;1099;102903;-76
2022/09/03 09:34:42;;;;;;;8.80;4.43;;;;;;;15.77;69.55;100845.20;124732;1099;104163;-77
2022/09/03 09:37:14;;;;;;;8.40;4.20;;;;;;;15.80;69.55;100833.79;124706;1099;104230;-76
2022/09/03 09:39:58;;;;;;;10.33;4.30;;;;;;;15.81;69.61;100832.91;124830;1099;104221;-77
2022/09/03 09:42:30;;;;;;;9.87;4.40;;;;;;;15.81;69.71;100836.44;124823;1098;102273;-76
2022/09/03 09:45:11;;;;;;;9.33;4.27;;;;;;;15.83;69.73;100832.94;124697;1099;102858;-77
2022/09/03 09:47:43;;;;;;;8.57;4.07;;;;;;;15.87;69.65;100827.73;124872;1099;107093;-76
2022/09/03 09:50:21;;;;;;;7.73;4.30;;;;;;;15.92;69.94;100827.83;124748;1099;104325;-77
2022/09/03 09:53:07;;;;;;;11.10;4.50;;;;;;;15.91;69.17;100823.38;124720;1099;104322;-76
2022/09/03 09:55:48;;;;;;;7.70;3.93;;;;;;;15.90;69.47;100819.86;124773;1099;102801;-77
2022/09/03 09:58:22;;;;;;;6.40;3.90;;;;;;;15.86;69.62;100823.30;124716;1099;102257;-76
2022/09/03 10:01:01;;;;;;;8.07;3.67;;;;;;;15.86;69.12;100827.70;124836;1099;104210;-77
2022/09/03 10:03:35;;;;;;;8.20;3.93;;;;;;;15.88;69.31;100828.62;124809;1099;102797;-77
2022/09/03 10:09:07;;;;;;;10.80;4.47;;;;;;;15.78;69.01;100828.47;124836;1099;104156;-76
2022/09/03 10:11:42;;;;;;;6.07;3.83;;;;;;;15.72;69.25;100828.31;124811;1098;102155;-76
2022/09/03 10:14:21;;;;;;;8.30;4.23;;;;;;;15.72;69.63;100830.96;124770;1099;102360;-77
2022/09/03 10:17:02;;;;;;;6.73;3.90;;;;;;;15.71;69.56;100830.92;124750;1099;104236;-77
2022/09/03 10:20:25;;;;;;;8.83;3.87;;;;;;;15.72;69.72;100832.69;124730;1099;104188;-77
2022/09/03 10:22:45;;;;;;;8.67;4.10;;;;;;;15.73;69.71;100823.91;124835;1098;104232;-77
2022/09/03 10:25:17;;;;;;;7.50;4.10;;;;;;;15.79;69.51;100824.06;124837;1099;104182;-77
2022/09/03 10:27:52;;;;;;;9.07;4.20;;;;;;;15.80;68.93;100832.03;124740;1098;102747;-77
2022/09/03 10:30:23;;;;;;;8.43;4.10;;;;;;;15.83;69.37;100833.81;124763;1099;104163;-77
2022/09/03 10:33:07;;;;;;;7.47;3.77;;;;;;;15.85;69.12;100840.05;124795;1099;102867;-76
2022/09/03 10:35:44;;;;;;;12.20;4.10;;;;;;;15.88;69.64;100833.91;124807;1099;104273;-77
2022/09/03 10:38:25;;;;;;;6.43;3.50;;;;;;;15.91;69.93;100828.67;124805;1098;104217;-76
2022/09/03 10:41:07;;;;;;;10.10;4.03;;;;;;;15.94;69.04;100829.65;124750;1099;102774;-77
2022/09/03 10:44:09;;;;;;;9.53;4.03;;;;;;;16.02;69.49;100835.09;124721;1099;104214;-77
2022/09/03 10:46:52;;;;;;;8.07;4.10;;;;;;;16.04;69.68;100841.30;124811;1099;102755;-77
2022/09/03 10:49:39;;;;;;;8.20;4.20;;;;;;;16.06;69.38;100841.32;124818;1099;104219;-77
2022/09/03 10:52:15;;;;;;;9.10;4.00;;;;;;;16.09;68.94;100839.61;124764;1098;104296;-77
2022/09/03 10:54:57;;;;;;;5.73;3.67;;;;;;;16.13;69.54;100846.76;124721;1099;104201;-77
2022/09/03 10:57:40;;;;;;;7.07;3.90;;;;;;;16.14;68.76;100845.91;124833;1098;104153;-77
2022/09/03 11:00:17;;;;;;;7.00;3.67;;;;;;;16.17;68.78;100842.41;126012;1098;104163;-77
2022/09/03 11:03:18;;;;;;;9.07;3.90;;;;;;;16.16;69.52;100846.81;124705;1099;104242;-77
2022/09/03 11:06:01;;;;;;;9.23;3.53;;;;;;;16.20;68.86;100841.58;124811;1099;103270;-76
2022/09/03 11:08:37;;;;;;;9.88;3.70;;;;;;;16.23;69.51;100847.81;124715;1099;104309;-77
2022/09/03 11:11:18;;;;;;;9.13;4.10;;;;;;;16.25;69.03;100847.84;124780;1098;104219;-77
2022/09/03 11:13:56;;;;;;;6.47;3.80;;;;;;;16.28;68.85;100850.55;124776;1099;104163;-77
2022/09/03 11:16:32;;;;;;;7.55;4.25;;;;;;;16.26;69.56;100855.81;124844;1099;104230;-78
2022/09/03 11:19:06;;;;;;;9.17;3.97;;;;;;;16.27;68.83;100857.61;124784;1099;104223;-77
2022/09/03 11:21:40;;;;;;;8.87;4.10;;;;;;;16.33;69.73;100864.75;124764;1099;104200;-77
2022/09/03 11:24:12;;;;;;;;;;;;;;;16.36;69.64;100864.80;124815;1098;104487;-77
2022/09/03 11:26:49;;;;;;;10.93;4.70;;;;;;;16.40;69.52;100863.13;124818;1099;104270;-77
2022/09/03 11:29:29;;;;;;;12.40;4.60;;;;;;;16.42;69.15;100867.56;124776;1099;104163;-77
2022/09/03 11:32:07;;;;;;;8.50;4.40;;;;;;;16.42;69.53;100870.20;124801;1099;104243;-77
2022/09/03 11:34:49;;;;;;;9.70;4.63;;;;;;;16.42;69.55;100870.20;124835;1099;102755;-77
2022/09/03 11:37:22;;;;;;;11.50;4.53;;;;;;;16.42;69.04;100870.20;124761;1099;102967;-77
2022/09/03 11:39:59;;;;;;;10.63;4.50;;;;;;;16.42;69.11;100870.20;124784;1099;111032;-77
2022/09/03 11:42:34;;;;;;;;;;;;;;;16.44;69.71;100873.80;124910;1099;103277;-77
2022/09/03 11:45:23;;;;;;;9.67;5.10;;;;;;;16.45;69.91;100861.44;124958;1097;102977;-77
2022/09/03 11:47:55;;;;;;;11.57;4.90;;;;;;;16.46;69.93;100860.58;124718;1099;104159;-76